Glen Allen, VA (23060)

9:37 PM EDT on April 20, 2015 (GMT -0400)
Laurel Lakes | | Change Station
CLOSE
Current Station
Personal Weather Station
Location: Glen Allen, VA
Elevation: 220 ft
Nearby Weather Stations

Elev 220 ft 37.65 °N, 77.51 °W | Updated 6 seconds ago

Overcast
Overcast
71.2 °F
Feels Like 74 °F
N
0.0
Wind Variable Wind from SSW
Gusts 1.0 mph

Today
High -- | Low -- °F
--% Chance of Precip.
Yesterday
High -- | Low -- °F
Precip. -- in
6:28 AM 7:50 PM
Waxing Crescent, 7% visible
Pressure 29.59 in
Visibility 10.0 miles
Clouds Few 12000 ft
Heat Index 74 °F
Dew Point 62 °F
Humidity 73%
Rainfall 0.46 in
Snow Depth Not available.
UV 0 out of 12
Pollen 6.40 out of 12
Air Quality Not available.
Flu Activity Local Activity
METAR KOFP 210054Z AUTO 19010G16KT 10SM FEW120 23/15 A2959 RMK AO2 SLP019 T02280150

More Conditions Fewer Conditions

Pressure 29.59 in
Visibility 10.0 miles
Clouds Few 12000 ft
Heat Index 74 °F
Dew Point 62 °F
Humidity 73%
Rainfall 0.46 in
Snow Depth Not available.
UV 0 out of 12
Pollen 6.40 out of 12
Air Quality Not available.
Flu Activity Local Activity
METAR KOFP 210054Z AUTO 19010G16KT 10SM FEW120 23/15 A2959 RMK AO2 SLP019 T02280150

More Conditions Fewer Conditions

The Storm Prediction Center has issued an enhanced risk of severe weather for parts of the Mid-Atlantic and Northeast, including Washington, D.C. Isolated tornadoes cannot be ruled out, but the biggest threat will come from strong thunderstorms producing strong winds and large hail. Tornado Watches are also posted for parts of Georgia, South Carolina, and North Carolina.

10-Day Weather Forecast

Almanac

Astronomy

Apr. 20, 2015 Rise Set
Actual Time
Civil Twilight
Nautical Twilight
Astronomical Twilight
Moon
Length of Visible Light
Length of Day
Tomorrow will be .
, % of the Moon is Illuminated

Today's Extremes

State Highs State Lows

Community

WunderPhotos

Upload Photos

1,815,276 photos uploaded!

WunderBlogs® & News

Nearby

Air Quality

  Air Quality AQ Index Pollutant
Not available.

Snow Depth

Station Depth Elevation

Earthquake Activity

City Distance Mag. Time & Date
Minimum magnitude displayed is 2.5.

Coastal Water Temperatures

Place Temperature

Stations

Nearby Weather Stations

Station Location Temp. Windchill Dew Point Humidity Wind Precip. Elev Updated Type